Main page


Airports :

Linton-on-Ouse, England

RAF Linton-on-Ouse

latitude: 54-03N, longitude: 001-15W, elevation: 16 m

Current weather observation

The report was made 55 minutes ago, at 16:50 UTC
Wind 5 kt from the Northwest
Temperature 8°C
Humidity 57%
Pressure 1031 hPa
Visibility 10 km or more
no clouds below 1500 m and no cumulonimbus

METAR: EGXU 201650Z 31005KT CAVOK 08/M00 Q1031 BLU NOSIG

Time: 17:45 (17:45 UTC)


The report was made 4 hours and 0 minutes ago, at 13:45 UTC
Forecast valid from 20 at 15 UTC to 20 at 19 UTC
Wind 12 kt from the North/Northwest
Visibility 10 km or more
Few clouds at a height of 1500 ft
Broken clouds at a height of 3000 ft
from 20 at 15 UTC to 20 at 19 UTC
Broken clouds at a height of 2000 ft

TAF: EGXU 201345Z 2015/2019 33012KT 9999 FEW015 BKN030 TEMPO 2015/2019 BKN020

Weather observations and forecasts of more than 4000 airports (METAR and TAF reports).

The available stations are represented by yellow and red dots on the map.

Hover mouse over dot to see the name of the station.

Then click to see weather observations and forecasts.

To change the map : click on the green buttons with a black cross to zoom in, on the green button with a dash to zoom out, or on the green arrows for adjacent maps.